createdAt,value
2017-07-22T00:01:35.211Z,1.53
2017-07-22T00:04:04.092Z,1.90
2017-07-22T00:06:32.955Z,1.90
2017-07-22T00:09:01.835Z,1.50
2017-07-22T00:11:30.857Z,1.80
2017-07-22T00:13:59.725Z,1.70
2017-07-22T00:16:28.669Z,1.80
2017-07-22T00:18:57.542Z,2.10
2017-07-22T00:21:26.433Z,2.00
2017-07-22T00:23:55.413Z,1.90
2017-07-22T00:26:24.407Z,1.83
2017-07-22T00:28:53.405Z,2.23
2017-07-22T00:31:22.290Z,1.80
2017-07-22T00:33:51.162Z,2.13
2017-07-22T00:36:20.090Z,1.83
2017-07-22T00:38:48.968Z,2.20
2017-07-22T00:41:17.874Z,2.20
2017-07-22T00:43:46.732Z,1.63
2017-07-22T00:46:15.650Z,2.47
2017-07-22T00:48:44.536Z,1.80
2017-07-22T00:51:13.429Z,2.20
2017-07-22T00:53:42.411Z,2.03
2017-07-22T00:56:11.282Z,1.93
2017-07-22T00:58:40.176Z,2.03
2017-07-22T01:01:09.058Z,1.90
2017-07-22T01:03:38.006Z,2.10
2017-07-22T01:06:06.968Z,2.20
2017-07-22T01:08:35.852Z,2.40
2017-07-22T01:11:04.770Z,1.70
2017-07-22T01:13:33.631Z,2.67
2017-07-22T01:16:02.549Z,1.70
2017-07-22T01:18:31.421Z,1.90
2017-07-22T01:21:00.285Z,2.00
2017-07-22T01:23:29.307Z,2.07
2017-07-22T01:25:58.217Z,2.30
2017-07-22T01:28:27.075Z,2.30
2017-07-22T01:30:56.197Z,1.80
2017-07-22T01:33:25.060Z,2.00
2017-07-22T01:35:53.928Z,2.17
2017-07-22T01:38:22.804Z,2.10
2017-07-22T01:40:51.672Z,2.33
2017-07-22T01:43:20.638Z,1.93
2017-07-22T01:45:49.544Z,2.27
2017-07-22T01:48:18.432Z,1.87
2017-07-22T01:50:47.414Z,1.93
2017-07-22T01:53:16.406Z,1.70
2017-07-22T01:55:45.304Z,1.93
2017-07-22T01:58:14.174Z,2.00
2017-07-22T02:00:43.085Z,2.20
2017-07-22T02:03:11.952Z,2.20
2017-07-22T02:05:40.812Z,1.83
2017-07-22T02:08:09.698Z,2.27
2017-07-22T02:10:38.565Z,2.90
2017-07-22T02:13:07.534Z,2.50
2017-07-22T02:15:36.528Z,2.10
2017-07-22T02:18:05.393Z,2.60
2017-07-22T02:20:34.317Z,2.17
2017-07-22T02:23:03.341Z,2.60
2017-07-22T02:25:32.215Z,2.40
2017-07-22T02:28:01.096Z,2.40
2017-07-22T02:30:29.985Z,2.27
2017-07-22T02:32:58.849Z,2.30
2017-07-22T02:35:27.712Z,1.83
2017-07-22T02:37:56.670Z,3.03
2017-07-22T02:40:25.640Z,3.23
2017-07-22T02:42:54.635Z,2.63
2017-07-22T02:45:23.627Z,2.70
2017-07-22T02:47:52.530Z,2.47
2017-07-22T02:50:21.392Z,2.30
2017-07-22T02:52:50.312Z,2.77
2017-07-22T02:55:19.178Z,2.70
2017-07-22T02:57:48.096Z,2.37
2017-07-22T03:00:16.981Z,2.47
2017-07-22T03:02:45.967Z,2.90
2017-07-22T03:05:14.830Z,2.50
2017-07-22T03:07:43.718Z,2.47
2017-07-22T03:10:12.653Z,3.10
2017-07-22T03:12:41.631Z,2.60
2017-07-22T03:15:10.625Z,2.37
2017-07-22T03:17:39.533Z,2.90
2017-07-22T03:20:08.511Z,3.00
2017-07-22T03:22:37.401Z,2.70
2017-07-22T03:25:06.273Z,2.20
2017-07-22T03:27:35.137Z,2.77
2017-07-22T03:30:04.093Z,2.90
2017-07-22T03:32:32.961Z,2.90
2017-07-22T03:35:01.864Z,3.13
2017-07-22T03:37:30.766Z,2.80
2017-07-22T03:39:59.629Z,2.90
2017-07-22T03:42:28.503Z,2.80
2017-07-22T03:44:57.440Z,2.80
2017-07-22T03:47:26.302Z,2.53
2017-07-22T03:49:55.168Z,2.77
2017-07-22T03:52:24.047Z,2.80
2017-07-22T03:54:52.914Z,2.80
2017-07-22T03:57:21.884Z,2.70
2017-07-22T03:59:50.880Z,2.90
2017-07-22T04:02:19.742Z,3.00
2017-07-22T04:04:48.607Z,3.80
2017-07-22T04:07:18.028Z,3.20
2017-07-22T04:09:46.890Z,3.00
2017-07-22T04:12:15.753Z,2.93
2017-07-22T04:14:44.645Z,2.67
2017-07-22T04:17:13.538Z,2.87
2017-07-22T04:19:42.421Z,3.60
2017-07-22T04:22:11.323Z,3.40
2017-07-22T04:24:40.287Z,2.93
2017-07-22T04:27:09.157Z,3.07
2017-07-22T04:29:38.075Z,3.30
2017-07-22T04:32:06.969Z,4.03
2017-07-22T04:34:35.833Z,4.00
2017-07-22T04:37:04.717Z,3.60
2017-07-22T04:39:33.660Z,3.40
2017-07-22T04:42:02.541Z,3.53
2017-07-22T04:44:31.434Z,3.83
2017-07-22T04:47:00.304Z,3.40
2017-07-22T04:49:29.214Z,3.93
2017-07-22T04:51:58.292Z,4.23
2017-07-22T04:54:27.158Z,3.40
2017-07-22T04:56:56.088Z,4.07
2017-07-22T04:59:25.104Z,4.10
2017-07-22T05:01:54.062Z,4.20
2017-07-22T05:04:22.962Z,5.27
2017-07-22T05:06:51.943Z,5.10
2017-07-22T05:09:20.814Z,4.87
2017-07-22T05:11:49.830Z,4.60
2017-07-22T05:14:18.727Z,4.80
2017-07-22T05:16:47.621Z,4.50
2017-07-22T05:19:16.512Z,4.83
2017-07-22T05:21:45.503Z,4.43
2017-07-22T05:24:14.397Z,5.53
2017-07-22T05:26:43.379Z,5.10
2017-07-22T05:29:12.373Z,4.57
2017-07-22T05:31:41.233Z,4.87
2017-07-22T05:34:10.169Z,4.80
2017-07-22T05:36:39.057Z,4.07
2017-07-22T05:39:07.925Z,4.77
2017-07-22T05:41:36.785Z,4.50
2017-07-22T05:44:05.669Z,4.90
2017-07-22T05:46:34.541Z,4.00
2017-07-22T05:49:03.500Z,3.47
2017-07-22T05:51:32.407Z,3.90
2017-07-22T05:54:01.313Z,4.03
2017-07-22T05:56:30.921Z,3.80
2017-07-22T05:58:59.985Z,3.90
2017-07-22T06:01:28.849Z,3.57
2017-07-22T06:03:57.870Z,3.57
2017-07-22T06:06:26.774Z,3.30
2017-07-22T06:08:55.640Z,3.10
2017-07-22T06:11:24.514Z,3.23
2017-07-22T06:13:53.402Z,3.30
2017-07-22T06:16:22.426Z,3.20
2017-07-22T06:18:51.300Z,3.47
2017-07-22T06:21:20.216Z,3.07
2017-07-22T06:23:49.079Z,3.03
2017-07-22T06:26:17.949Z,3.40
2017-07-22T06:28:46.838Z,3.13
2017-07-22T06:31:15.711Z,3.47
2017-07-22T06:33:44.608Z,3.00
2017-07-22T06:36:13.489Z,3.20
2017-07-22T06:38:42.376Z,3.30
2017-07-22T06:41:11.237Z,3.40
2017-07-22T06:43:40.197Z,3.20
2017-07-22T06:46:09.087Z,3.20
2017-07-22T06:48:37.963Z,3.07
2017-07-22T06:51:07.001Z,2.80
2017-07-22T06:53:35.868Z,2.70
2017-07-22T06:56:04.786Z,2.57
2017-07-22T06:58:33.670Z,2.63
2017-07-22T07:01:01.586Z,3.00
2017-07-22T07:03:29.136Z,2.60
2017-07-22T07:05:56.668Z,2.90
2017-07-22T07:08:24.197Z,2.33
2017-07-22T07:10:51.774Z,2.70
2017-07-22T07:13:19.342Z,2.33
2017-07-22T07:15:46.858Z,2.87
2017-07-22T07:18:15.182Z,2.80
2017-07-22T07:20:42.733Z,2.43
2017-07-22T07:23:10.297Z,2.40
2017-07-22T07:25:37.861Z,3.00
2017-07-22T07:28:05.515Z,2.53
2017-07-22T07:30:33.041Z,2.50
2017-07-22T07:33:01.342Z,2.57
2017-07-22T07:35:28.913Z,2.80
2017-07-22T07:37:56.471Z,2.57
2017-07-22T07:40:24.038Z,3.47
2017-07-22T07:42:51.692Z,2.17
2017-07-22T07:45:19.259Z,2.70
2017-07-22T07:47:46.777Z,2.53
2017-07-22T07:50:15.188Z,2.63
2017-07-22T07:52:42.713Z,2.63
2017-07-22T07:55:11.051Z,2.67
2017-07-22T07:57:38.688Z,2.87
2017-07-22T08:00:06.304Z,2.53
2017-07-22T08:02:34.630Z,2.47
2017-07-22T08:05:02.197Z,2.50
2017-07-22T08:07:29.746Z,2.50
2017-07-22T08:09:57.270Z,2.23
2017-07-22T08:12:25.580Z,2.80
2017-07-22T08:14:53.091Z,2.37
2017-07-22T08:17:21.418Z,1.97
2017-07-22T08:19:48.954Z,1.80
2017-07-22T08:22:16.466Z,1.57
2017-07-22T08:24:43.994Z,1.60
2017-07-22T08:27:11.538Z,2.30
2017-07-22T08:29:39.217Z,2.17
2017-07-22T08:32:06.780Z,2.10
2017-07-22T08:34:34.337Z,1.83
2017-07-22T08:37:01.885Z,1.80
2017-07-22T08:39:29.457Z,1.93
2017-07-22T08:41:56.993Z,2.20
2017-07-22T08:44:24.543Z,2.13
2017-07-22T08:46:52.070Z,1.50
2017-07-22T08:49:19.608Z,1.67
2017-07-22T08:51:47.150Z,1.50
2017-07-22T08:54:14.684Z,1.60
2017-07-22T08:56:42.267Z,1.57
2017-07-22T08:59:09.791Z,1.90
2017-07-22T09:01:38.072Z,1.63
2017-07-22T09:04:05.605Z,8.63
2017-07-22T09:06:33.893Z,2.20
2017-07-22T09:09:01.507Z,1.70
2017-07-22T09:11:29.053Z,2.00
2017-07-22T09:13:56.595Z,1.90
2017-07-22T09:16:24.148Z,2.00
2017-07-22T09:18:51.957Z,2.10
2017-07-22T09:21:19.496Z,2.10
2017-07-22T09:23:47.078Z,2.23
2017-07-22T09:26:14.627Z,1.90
2017-07-22T09:28:42.148Z,2.37
2017-07-22T09:31:09.690Z,1.87
2017-07-22T09:33:37.237Z,2.70
2017-07-22T09:36:04.870Z,1.90
2017-07-22T09:38:32.429Z,1.90
2017-07-22T09:41:00.144Z,2.00
2017-07-22T09:43:28.443Z,2.40
2017-07-22T09:45:55.984Z,2.40
2017-07-22T09:48:23.530Z,1.90
2017-07-22T09:50:51.841Z,2.90
2017-07-22T09:53:19.619Z,2.10
2017-07-22T09:55:47.193Z,2.13
2017-07-22T09:58:14.935Z,2.43
2017-07-22T10:00:42.499Z,2.30
2017-07-22T10:03:10.159Z,2.30
2017-07-22T10:05:37.821Z,2.43
2017-07-22T10:08:05.481Z,2.17
2017-07-22T10:10:33.022Z,2.60
2017-07-22T10:13:00.599Z,2.33
2017-07-22T10:15:28.122Z,2.10
2017-07-22T10:17:56.508Z,2.30
2017-07-22T10:20:24.114Z,2.07
2017-07-22T10:22:51.666Z,2.10
2017-07-22T10:25:19.212Z,2.83
2017-07-22T10:27:46.882Z,2.80
2017-07-22T10:30:14.422Z,2.50
2017-07-22T10:32:41.966Z,2.60
2017-07-22T10:35:09.655Z,2.53
2017-07-22T10:37:37.173Z,2.93
2017-07-22T10:40:05.478Z,3.43
2017-07-22T10:42:32.997Z,3.20
2017-07-22T10:45:00.517Z,2.90
2017-07-22T10:47:28.054Z,3.00
2017-07-22T10:49:55.642Z,3.10
2017-07-22T10:52:23.208Z,2.80
2017-07-22T10:54:50.762Z,2.67
2017-07-22T10:57:18.305Z,3.10
2017-07-22T10:59:45.819Z,3.33
2017-07-22T11:02:13.357Z,2.63
2017-07-22T11:04:40.881Z,2.73
2017-07-22T11:07:08.405Z,2.50
2017-07-22T11:09:36.719Z,2.13
2017-07-22T11:12:04.277Z,3.00
2017-07-22T11:14:31.797Z,2.60
2017-07-22T11:17:00.100Z,2.40
2017-07-22T11:19:28.969Z,3.10
2017-07-22T11:21:57.837Z,2.40
2017-07-22T11:24:26.808Z,2.77
2017-07-22T11:26:55.698Z,2.80
2017-07-22T11:29:24.586Z,1.97
2017-07-22T11:31:53.664Z,2.30
2017-07-22T11:34:22.528Z,3.03
2017-07-22T11:36:51.550Z,3.20
2017-07-22T11:39:20.448Z,2.80
2017-07-22T11:41:48.818Z,2.60
2017-07-22T11:44:16.381Z,3.00
2017-07-22T11:46:45.278Z,2.37
2017-07-22T11:49:12.829Z,2.60
2017-07-22T11:51:40.357Z,2.60
2017-07-22T11:54:08.781Z,2.57
2017-07-22T11:56:36.297Z,5.20
2017-07-22T11:59:04.631Z,3.07
2017-07-22T12:01:32.375Z,2.53
2017-07-22T12:04:01.329Z,2.50
2017-07-22T12:06:30.225Z,2.60
2017-07-22T12:08:59.250Z,1.83
2017-07-22T12:11:28.113Z,2.20
2017-07-22T12:13:57.129Z,2.37
2017-07-22T12:16:26.024Z,2.25
2017-07-22T12:18:55.014Z,2.10
2017-07-22T12:21:23.881Z,1.70
2017-07-22T12:23:52.810Z,2.03
2017-07-22T12:26:21.678Z,1.65
2017-07-22T12:28:50.904Z,1.97
2017-07-22T12:31:19.894Z,2.40
2017-07-22T12:33:48.756Z,2.08
2017-07-22T12:36:17.642Z,2.40
2017-07-22T12:38:46.534Z,1.98
2017-07-22T12:41:15.402Z,1.90
2017-07-22T12:43:44.357Z,2.08
2017-07-22T12:46:13.339Z,2.20
2017-07-22T12:48:42.217Z,2.07
2017-07-22T12:51:11.208Z,1.90
2017-07-22T12:53:40.203Z,1.75
2017-07-22T12:56:09.062Z,1.85
2017-07-22T12:58:37.929Z,2.20
2017-07-22T13:01:06.813Z,2.05
2017-07-22T13:03:35.676Z,1.90
2017-07-22T13:06:04.657Z,2.25
2017-07-22T13:08:33.650Z,1.70
2017-07-22T13:11:02.868Z,1.87
2017-07-22T13:13:31.748Z,1.98
2017-07-22T13:16:00.734Z,1.87
2017-07-22T13:18:29.726Z,1.83
2017-07-22T13:20:58.608Z,1.83
2017-07-22T13:23:27.502Z,1.80
2017-07-22T13:25:56.416Z,2.45
2017-07-22T13:28:25.300Z,1.55
2017-07-22T13:30:54.292Z,2.00
2017-07-22T13:33:23.280Z,1.40
2017-07-22T13:35:52.150Z,1.70
2017-07-22T13:38:21.045Z,1.67
2017-07-22T13:40:49.961Z,1.33
2017-07-22T13:43:18.842Z,1.77
2017-07-22T13:45:47.734Z,1.85
2017-07-22T13:48:16.723Z,1.40
2017-07-22T13:50:45.599Z,1.75
2017-07-22T13:53:14.522Z,9.27
2017-07-22T13:55:43.395Z,2.37
2017-07-22T13:58:12.081Z,2.15
2017-07-22T14:00:39.621Z,1.90
2017-07-22T14:03:07.157Z,1.90
2017-07-22T14:05:35.477Z,1.58
2017-07-22T14:08:03.043Z,1.45
2017-07-22T14:10:30.597Z,1.75
2017-07-22T14:12:58.116Z,1.35
2017-07-22T14:15:26.435Z,1.62
2017-07-22T14:17:53.957Z,1.42
2017-07-22T14:20:22.385Z,1.60
2017-07-22T14:22:49.916Z,1.50
2017-07-22T14:25:17.434Z,1.60
2017-07-22T14:27:44.957Z,1.55
2017-07-22T14:30:14.136Z,1.67
2017-07-22T14:32:43.004Z,1.87
2017-07-22T14:35:11.317Z,1.45
2017-07-22T14:37:38.854Z,1.85
2017-07-22T14:40:06.436Z,1.50
2017-07-22T14:42:33.966Z,1.83
2017-07-22T14:45:01.656Z,1.58
2017-07-22T14:47:30.562Z,1.50
2017-07-22T14:50:00.482Z,1.65
2017-07-22T14:52:29.473Z,1.70
2017-07-22T14:54:58.351Z,1.60
2017-07-22T14:57:27.250Z,1.42
2017-07-22T14:59:56.141Z,1.50
2017-07-22T15:02:27.103Z,1.55
2017-07-22T15:04:55.988Z,1.50
2017-07-22T15:07:25.048Z,1.65
2017-07-22T15:09:53.913Z,1.77
2017-07-22T15:12:22.837Z,1.73
2017-07-22T15:14:52.618Z,2.05
2017-07-22T15:17:21.543Z,1.42
2017-07-22T15:19:50.522Z,1.90
2017-07-22T15:22:19.518Z,1.48
2017-07-22T15:24:48.420Z,1.52
2017-07-22T15:27:17.412Z,1.80
2017-07-22T15:29:46.290Z,2.15
2017-07-22T15:32:15.285Z,2.08
2017-07-22T15:34:44.276Z,1.83
2017-07-22T15:37:13.188Z,1.85
2017-07-22T15:39:42.158Z,2.10
2017-07-22T15:42:11.051Z,2.20
2017-07-22T15:44:38.626Z,2.10
2017-07-22T15:47:06.168Z,2.00
2017-07-22T15:49:33.828Z,2.00
2017-07-22T15:52:01.393Z,1.87
2017-07-22T15:54:29.319Z,2.10
2017-07-22T15:56:56.864Z,2.20
2017-07-22T15:59:25.209Z,2.00
2017-07-22T16:01:54.183Z,2.23
2017-07-22T16:04:23.073Z,1.80
2017-07-22T16:06:51.977Z,2.00
2017-07-22T16:09:20.985Z,4.23
2017-07-22T16:11:50.055Z,5.37
2017-07-22T16:14:18.433Z,2.70
2017-07-22T16:16:47.336Z,1.93
2017-07-22T16:19:14.983Z,2.23
2017-07-22T16:21:42.548Z,2.07
2017-07-22T16:24:10.100Z,2.73
2017-07-22T16:26:37.636Z,2.37
2017-07-22T16:29:05.323Z,3.10
2017-07-22T16:31:32.981Z,3.37
2017-07-22T16:34:01.897Z,2.70
2017-07-22T16:36:30.778Z,6.73
2017-07-22T16:38:59.658Z,3.90
2017-07-22T16:41:28.544Z,2.70
2017-07-22T16:43:57.414Z,2.70
2017-07-22T16:46:24.952Z,2.47
2017-07-22T16:48:53.378Z,3.43
2017-07-22T16:51:20.934Z,6.00
2017-07-22T16:53:48.491Z,2.70
2017-07-22T16:56:16.153Z,2.60
2017-07-22T16:58:43.673Z,2.70
2017-07-22T17:01:11.961Z,3.13
2017-07-22T17:03:39.513Z,3.10
2017-07-22T17:06:07.830Z,2.53
2017-07-22T17:08:36.220Z,2.50
2017-07-22T17:11:03.774Z,2.80
2017-07-22T17:13:31.341Z,2.30
2017-07-22T17:15:58.877Z,2.60
2017-07-22T17:18:26.652Z,2.60
2017-07-22T17:20:54.307Z,2.63
2017-07-22T17:23:21.824Z,3.40
2017-07-22T17:25:50.155Z,2.67
2017-07-22T17:28:17.697Z,2.50
2017-07-22T17:30:45.258Z,3.40
2017-07-22T17:33:12.828Z,2.70
2017-07-22T17:35:40.374Z,3.73
2017-07-22T17:38:07.902Z,4.23
2017-07-22T17:40:35.444Z,2.97
2017-07-22T17:43:02.973Z,2.70
2017-07-22T17:45:30.486Z,2.70
2017-07-22T17:47:58.078Z,2.80
2017-07-22T17:50:25.614Z,2.70
2017-07-22T17:52:53.137Z,3.00
2017-07-22T17:55:20.682Z,12.20
2017-07-22T17:57:48.214Z,4.50
2017-07-22T18:00:15.737Z,2.67
2017-07-22T18:02:43.290Z,2.47
2017-07-22T18:05:10.825Z,2.53
2017-07-22T18:07:38.350Z,7.50
2017-07-22T18:10:06.105Z,13.00
2017-07-22T18:12:33.901Z,5.10
2017-07-22T18:15:01.509Z,4.50
2017-07-22T18:17:29.188Z,4.63
2017-07-22T18:19:56.708Z,3.43
2017-07-22T18:22:24.992Z,3.37
2017-07-22T18:24:52.543Z,3.53
2017-07-22T18:27:20.062Z,5.40
2017-07-22T18:29:47.599Z,5.33
2017-07-22T18:32:15.156Z,8.17
2017-07-22T18:34:42.682Z,10.50
2017-07-22T18:37:10.230Z,6.40
2017-07-22T18:39:37.775Z,7.10
2017-07-22T18:42:05.309Z,10.43
2017-07-22T18:44:32.868Z,7.90
2017-07-22T18:47:00.424Z,10.37
2017-07-22T18:49:27.950Z,7.70
2017-07-22T18:51:55.488Z,6.60
2017-07-22T18:54:23.030Z,7.50
2017-07-22T18:56:50.558Z,4.30
2017-07-22T18:59:18.105Z,4.60
2017-07-22T19:01:45.659Z,4.80
2017-07-22T19:04:13.194Z,26.40
2017-07-22T19:09:14.506Z,5.63
2017-07-22T19:11:42.039Z,5.50
2017-07-22T19:14:09.586Z,4.80
2017-07-22T19:16:37.139Z,5.30
2017-07-22T19:19:04.670Z,5.27
2017-07-22T19:21:32.215Z,5.30
2017-07-22T19:24:01.389Z,6.10
2017-07-22T19:26:28.990Z,11.20
2017-07-22T19:28:56.512Z,5.80
2017-07-22T19:31:24.082Z,4.97
2017-07-22T19:33:51.722Z,5.83
2017-07-22T19:36:19.307Z,6.30
2017-07-22T19:38:46.910Z,7.73
2017-07-22T19:41:14.453Z,6.30
2017-07-22T19:43:42.071Z,6.13
2017-07-22T19:46:09.660Z,5.60
2017-07-22T19:48:37.182Z,5.93
2017-07-22T19:51:04.739Z,6.63
2017-07-22T19:53:32.400Z,6.80
2017-07-22T19:55:59.946Z,6.67
2017-07-22T19:58:27.834Z,6.30
2017-07-22T20:00:55.487Z,6.70
2017-07-22T20:03:23.025Z,5.60
2017-07-22T20:05:51.310Z,5.37
2017-07-22T20:08:18.860Z,6.00
2017-07-22T20:10:46.389Z,6.10
2017-07-22T20:13:14.025Z,6.90
2017-07-22T20:15:41.561Z,9.93
2017-07-22T20:18:09.109Z,5.50
2017-07-22T20:20:37.537Z,6.30
2017-07-22T20:23:05.108Z,12.67
2017-07-22T20:25:32.635Z,7.37
2017-07-22T20:28:00.156Z,7.23
2017-07-22T20:30:27.759Z,12.07
2017-07-22T20:32:55.320Z,29.93
2017-07-22T20:35:22.847Z,7.00
2017-07-22T20:37:50.394Z,6.67
2017-07-22T20:40:17.918Z,6.77
2017-07-22T20:42:45.541Z,8.07
2017-07-22T20:45:13.090Z,6.33
2017-07-22T20:47:40.626Z,6.47
2017-07-22T20:50:08.170Z,21.37
2017-07-22T20:52:36.494Z,10.30
2017-07-22T20:55:04.044Z,7.43
2017-07-22T20:57:31.612Z,6.83
2017-07-22T20:59:59.166Z,6.27
2017-07-22T21:02:26.699Z,6.27
2017-07-22T21:04:55.007Z,5.80
2017-07-22T21:07:22.577Z,5.67
2017-07-22T21:09:50.098Z,5.30
2017-07-22T21:12:17.630Z,5.13
2017-07-22T21:14:45.196Z,5.90
2017-07-22T21:17:13.507Z,6.00
2017-07-22T21:19:41.033Z,6.33
2017-07-22T21:22:18.557Z,5.97
2017-07-22T21:24:47.641Z,4.80
2017-07-22T21:27:20.232Z,6.00
2017-07-22T21:32:23.406Z,6.10
2017-07-22T21:34:52.585Z,5.13
2017-07-22T21:37:21.413Z,5.63
2017-07-22T21:39:49.729Z,6.97
2017-07-22T21:42:17.278Z,6.40
2017-07-22T21:44:45.660Z,5.97
2017-07-22T21:47:13.204Z,6.43
2017-07-22T21:49:40.748Z,6.10
2017-07-22T21:52:09.056Z,7.47
2017-07-22T21:54:36.602Z,6.17
2017-07-22T21:57:04.145Z,6.87
2017-07-22T21:59:32.502Z,6.10
2017-07-22T22:02:00.121Z,11.50
2017-07-22T22:04:27.645Z,17.10
2017-07-22T22:06:55.161Z,9.17
2017-07-22T22:09:22.713Z,8.47
2017-07-22T22:11:50.238Z,7.80
2017-07-22T22:14:17.765Z,7.47
2017-07-22T22:16:46.188Z,10.20
2017-07-22T22:19:13.713Z,8.23
2017-07-22T22:21:41.992Z,6.17
2017-07-22T22:24:10.299Z,6.70
2017-07-22T22:26:37.819Z,7.20
2017-07-22T22:29:06.101Z,9.77
2017-07-22T22:31:34.411Z,10.20
2017-07-22T22:34:01.932Z,7.60
2017-07-22T22:36:30.220Z,6.30
2017-07-22T22:38:58.628Z,7.83
2017-07-22T22:41:26.144Z,8.60
2017-07-22T22:43:54.426Z,6.83
2017-07-22T22:46:22.736Z,7.20
2017-07-22T22:48:50.258Z,6.60
2017-07-22T22:51:17.786Z,6.90
2017-07-22T22:53:45.330Z,6.30
2017-07-22T22:56:12.854Z,7.43
2017-07-22T22:58:40.378Z,6.63
2017-07-22T23:01:07.953Z,6.70
2017-07-22T23:03:36.242Z,7.17
2017-07-22T23:06:04.529Z,7.10
2017-07-22T23:08:32.107Z,6.93
2017-07-22T23:10:59.621Z,6.57
2017-07-22T23:13:27.142Z,7.27
2017-07-22T23:15:54.790Z,7.40
2017-07-22T23:18:22.318Z,7.50
2017-07-22T23:20:50.609Z,6.90
2017-07-22T23:23:18.155Z,7.47
2017-07-22T23:25:45.677Z,6.83
2017-07-22T23:28:13.189Z,6.50
2017-07-22T23:30:40.768Z,7.60
2017-07-22T23:33:08.284Z,7.20
2017-07-22T23:35:36.569Z,7.40
2017-07-22T23:38:04.101Z,7.67
2017-07-22T23:40:31.716Z,7.13
2017-07-22T23:42:59.239Z,7.13
2017-07-22T23:45:27.540Z,6.93
2017-07-22T23:47:55.054Z,7.40
2017-07-22T23:50:22.572Z,6.70
2017-07-22T23:52:50.105Z,7.20
2017-07-22T23:55:17.627Z,7.23
2017-07-22T23:57:45.144Z,7.57
